| time (UTC) | temp F | wind direction | speed knots | gust knots | rain 1hr in | rain 24hr in | rain mn in | humidity % | barometer mb |
| 20260504081912 | 58 | 343 | 6.1 | 9.6 | 0.00 | 0.00 | 0.00 | 71 | 1018.0 |
| 20260504081412 | 58 | 347 | 5.2 | 7.8 | 0.00 | 0.00 | 0.00 | 70 | 1018.0 |
| 20260504080912 | 58 | 343 | 5.2 | 7.8 | 0.00 | 0.00 | 0.00 | 71 | 1018.0 |
| 20260504080412 | 58 | 348 | 6.1 | 9.6 | 0.00 | 0.00 | 0.00 | 71 | 1018.0 |
| 20260504070412 | 59 | 171 | 1.7 | 1.7 | 0.00 | 0.00 | 0.00 | 70 | 1018.0 |
| 20260504050412 | 61 | 152 | 1.7 | 1.7 | 0.00 | 0.00 | 0.00 | 79 | 1019.0 |
| 20260504045912 | 61 | 175 | 1.7 | 1.7 | 0.00 | 0.00 | 0.00 | 78 | 1019.0 |
| 20260504045412 | 61 | 153 | 1.7 | 2.6 | 0.00 | 0.00 | 0.00 | 78 | 1019.0 |
| 20260504044911 | 61 | 175 | 0.9 | 1.7 | 0.00 | 0.00 | 0.00 | 78 | 1019.0 |
| 20260504044412 | 61 | 179 | 0.9 | 1.7 | 0.00 | 0.00 | 0.00 | 77 | 1019.0 |
| 20260504043911 | 62 | 185 | 0.9 | 1.7 | 0.00 | 0.00 | 0.00 | 77 | 1019.0 |
| 20260504043411 | 62 | 179 | 1.7 | 1.7 | 0.00 | 0.00 | 0.00 | 76 | 1019.0 |
| 20260504042911 | 62 | 174 | 0.9 | 0.9 | 0.00 | 0.00 | 0.00 | 76 | 1019.0 |
| 20260504042412 | 62 | 183 | 1.7 | 1.7 | 0.00 | 0.00 | 0.00 | 75 | 1019.0 |
| 20260504041912 | 62 | 173 | 0.9 | 0.9 | 0.00 | 0.00 | 0.00 | 75 | 1019.0 |
| 20260504041412 | 63 | 179 | 0.9 | 0.9 | 0.00 | 0.00 | 0.00 | 75 | 1019.0 |
| 20260504040911 | 63 | 181 | 0.9 | 1.7 | 0.00 | 0.00 | 0.00 | 74 | 1019.0 |
| 20260504040412 | 63 | 130 | 1.7 | 2.6 | 0.00 | 0.00 | 0.00 | 74 | 1019.0 |
| 20260504035911 | 63 | 165 | 0.9 | 1.7 | 0.00 | 0.00 | 0.00 | 73 | 1019.0 |
| 20260504035412 | 63 | 170 | 0.9 | 0.9 | 0.00 | 0.00 | 0.00 | 73 | 1019.0 |
| 20260504034911 | 64 | 162 | 0.9 | 0.9 | 0.00 | 0.00 | 0.00 | 72 | 1019.0 |
| 20260504034412 | 64 | 165 | 0.9 | 0.9 | 0.00 | 0.00 | 0.00 | 71 | 1019.0 |
| 20260504033911 | 64 | 167 | 0.9 | 0.9 | 0.00 | 0.00 | 0.00 | 71 | 1019.0 |
| 20260504033411 | 64 | 173 | 0.9 | 2.6 | 0.00 | 0.00 | 0.00 | 70 | 1019.0 |
| 20260504032912 | 65 | 183 | 0.9 | 1.7 | 0.00 | 0.00 | 0.00 | 70 | 1019.0 |
| 20260504032412 | 65 | 180 | 0.9 | 0.9 | 0.00 | 0.00 | 0.00 | 69 | 1019.0 |
| 20260504031911 | 65 | 184 | 1.7 | 2.6 | 0.00 | 0.00 | 0.00 | 69 | 1019.0 |
| 20260504031411 | 65 | 160 | 2.6 | 3.5 | 0.00 | 0.00 | 0.00 | 69 | 1019.0 |
| 20260504030912 | 65 | 145 | 2.6 | 3.5 | 0.00 | 0.00 | 0.00 | 68 | 1019.0 |
| 20260504030412 | 65 | 166 | 1.7 | 3.5 | 0.00 | 0.00 | 0.00 | 68 | 1019.0 |
| 20260504025914 | 65 | 162 | 1.7 | 3.5 | 0.00 | 0.00 | 0.00 | 68 | 1019.0 |
| 20260504025411 | 65 | 210 | 1.7 | 3.5 | 0.00 | 0.00 | 0.00 | 67 | 1019.0 |
| 20260504024912 | 65 | 177 | 2.6 | 4.3 | 0.00 | 0.00 | 0.00 | 66 | 1019.0 |
| 20260504024412 | 66 | 147 | 1.7 | 2.6 | 0.00 | 0.00 | 0.00 | 65 | 1019.0 |
| 20260504023912 | 66 | 148 | 1.7 | 2.6 | 0.00 | 0.00 | 0.00 | 64 | 1019.0 |
| 20260504023411 | 67 | 144 | 1.7 | 3.5 | 0.00 | 0.00 | 0.00 | 64 | 1019.0 |
| 20260504022912 | 67 | 171 | 0.9 | 3.5 | 0.00 | 0.00 | 0.00 | 63 | 1019.0 |
| 20260504022411 | 67 | 164 | 1.7 | 3.5 | 0.00 | 0.00 | 0.00 | 62 | 1019.0 |
| 20260504021911 | 68 | 200 | 1.7 | 3.5 | 0.00 | 0.00 | 0.00 | 62 | 1019.0 |
| 20260504021412 | 68 | 205 | 1.7 | 3.5 | 0.00 | 0.00 | 0.00 | 62 | 1019.0 |
| 20260504020911 | 68 | 212 | 1.7 | 3.5 | 0.00 | 0.00 | 0.00 | 62 | 1019.0 |
| 20260504020411 | 69 | 168 | 0.9 | 1.7 | 0.00 | 0.00 | 0.00 | 60 | 1019.0 |
| 20260504015912 | 69 | 168 | 0.9 | 2.6 | 0.00 | 0.00 | 0.00 | 59 | 1018.0 |
| 20260504015412 | 69 | 197 | 0.9 | 3.5 | 0.00 | 0.00 | 0.00 | 59 | 1018.0 |
| 20260504014912 | 69 | 226 | 1.7 | 4.3 | 0.00 | 0.00 | 0.00 | 60 | 1018.0 |
| 20260504014411 | 69 | 210 | 0.9 | 3.5 | 0.00 | 0.00 | 0.00 | 62 | 1018.0 |
| 20260504013912 | 69 | 211 | 0.9 | 1.7 | 0.00 | 0.00 | 0.00 | 62 | 1018.0 |
| 20260504013411 | 69 | 228 | 1.7 | 3.5 | 0.00 | 0.00 | 0.00 | 63 | 1018.0 |
| 20260504012911 | 69 | 208 | 0.9 | 2.6 | 0.00 | 0.00 | 0.00 | 64 | 1018.0 |
| 20260504012411 | 69 | 196 | 0.9 | 2.6 | 0.00 | 0.00 | 0.00 | 63 | 1018.0 |
| 20260504011911 | 69 | 219 | 1.7 | 3.5 | 0.00 | 0.00 | 0.00 | 62 | 1018.0 |
| 20260504011411 | 69 | 165 | 0.9 | 1.7 | 0.00 | 0.00 | 0.00 | 63 | 1018.0 |
| 20260504010912 | 69 | 145 | 0.9 | 2.6 | 0.00 | 0.00 | 0.00 | 62 | 1018.0 |
| 20260504010412 | 69 | 215 | 1.7 | 2.6 | 0.00 | 0.00 | 0.00 | 62 | 1018.0 |
| 20260504005912 | 69 | 221 | 1.7 | 2.6 | 0.00 | 0.00 | 0.00 | 62 | 1018.0 |
| 20260504005412 | 70 | 209 | 0.9 | 1.7 | 0.00 | 0.00 | 0.00 | 62 | 1018.0 |
| 20260504004911 | 70 | 193 | 1.7 | 2.6 | 0.00 | 0.00 | 0.00 | 61 | 1018.0 |
| 20260504004411 | 70 | 237 | 1.7 | 2.6 | 0.00 | 0.00 | 0.00 | 61 | 1018.0 |
| 20260504003912 | 70 | 233 | 1.7 | 2.6 | 0.00 | 0.00 | 0.00 | 61 | 1018.0 |
| 20260504003411 | 70 | 240 | 1.7 | 3.5 | 0.00 | 0.00 | 0.00 | 61 | 1018.0 |
| 20260504002911 | 70 | 219 | 0.9 | 2.6 | 0.00 | 0.00 | 0.00 | 62 | 1018.0 |
| 20260504002411 | 70 | 236 | 1.7 | 3.5 | 0.00 | 0.00 | 0.00 | 61 | 1018.0 |
| 20260504001911 | 70 | 242 | 2.6 | 3.5 | 0.00 | 0.00 | 0.00 | 60 | 1018.0 |
| 20260504001411 | 71 | 238 | 1.7 | 2.6 | 0.00 | 0.00 | 0.00 | 60 | 1018.0 |
| 20260504000911 | 71 | 236 | 1.7 | 3.5 | 0.00 | 0.00 | 0.00 | 60 | 1018.0 |
| 20260504000411 | 71 | 243 | 1.7 | 2.6 | 0.00 | 0.00 | 0.00 | 59 | 1018.0 |
| 20260503235911 | 71 | 246 | 1.7 | 6.1 | 0.00 | 0.00 | 0.00 | 61 | 1018.0 |
| 20260503235411 | 71 | 242 | 2.6 | 4.3 | 0.00 | 0.00 | 0.00 | 60 | 1018.0 |
| 20260503234911 | 72 | 253 | 1.7 | 2.6 | 0.00 | 0.00 | 0.00 | 59 | 1018.0 |
| 20260503234412 | 72 | 193 | 0.0 | 0.0 | 0.00 | 0.00 | 0.00 | 58 | 1017.0 |
| 20260503233911 | 72 | 178 | 0.0 | 0.0 | 0.00 | 0.00 | 0.00 | 57 | 1017.0 |
| 20260503233411 | 72 | 232 | 0.9 | 1.7 | 0.00 | 0.00 | 0.00 | 55 | 1017.0 |
| 20260503232911 | 72 | 126 | 0.9 | 1.7 | 0.00 | 0.00 | 0.00 | 56 | 1017.0 |
| 20260503232411 | 72 | 92 | 0.9 | 1.7 | 0.00 | 0.00 | 0.00 | 56 | 1017.0 |
| 20260503231911 | 73 | 122 | 0.0 | 1.7 | 0.00 | 0.00 | 0.00 | 56 | 1017.0 |
| 20260503231411 | 73 | 283 | 0.0 | 0.9 | 0.00 | 0.00 | 0.00 | 56 | 1017.0 |
| 20260503230912 | 73 | 80 | 1.7 | 3.5 | 0.00 | 0.00 | 0.00 | 56 | 1017.0 |
| 20260503230411 | 73 | 151 | 0.0 | 1.7 | 0.00 | 0.00 | 0.00 | 54 | 1017.0 |
| 20260503225912 | 73 | 130 | 1.7 | 2.6 | 0.00 | 0.00 | 0.00 | 55 | 1017.0 |
| 20260503225411 | 73 | 107 | 0.9 | 1.7 | 0.00 | 0.00 | 0.00 | 53 | 1017.0 |
| 20260503224912 | 73 | 106 | 0.9 | 1.7 | 0.00 | 0.00 | 0.00 | 53 | 1017.0 |
| 20260503224411 | 73 | 136 | 0.9 | 1.7 | 0.00 | 0.00 | 0.00 | 52 | 1017.0 |
| 20260503223912 | 74 | 133 | 0.9 | 2.6 | 0.00 | 0.00 | 0.00 | 52 | 1017.0 |
| 20260503223411 | 74 | 97 | 0.0 | 1.7 | 0.00 | 0.00 | 0.00 | 52 | 1017.0 |
| 20260503222911 | 74 | 162 | 0.0 | 0.9 | 0.00 | 0.00 | 0.00 | 51 | 1017.0 |
| 20260503222411 | 74 | 266 | 1.7 | 3.5 | 0.00 | 0.00 | 0.00 | 51 | 1017.0 |
| 20260503221911 | 74 | 121 | 0.0 | 1.7 | 0.00 | 0.00 | 0.00 | 52 | 1017.0 |
| 20260503221412 | 74 | 120 | 1.7 | 3.5 | 0.00 | 0.00 | 0.00 | 52 | 1017.0 |
| 20260503220912 | 74 | 247 | 0.9 | 1.7 | 0.00 | 0.00 | 0.00 | 51 | 1017.0 |
| 20260503220411 | 74 | 243 | 0.0 | 1.7 | 0.00 | 0.00 | 0.00 | 51 | 1017.0 |
| 20260503215911 | 74 | 257 | 1.7 | 3.5 | 0.00 | 0.00 | 0.00 | 50 | 1018.0 |
| 20260503215411 | 74 | 105 | 0.9 | 1.7 | 0.00 | 0.00 | 0.00 | 50 | 1018.0 |
| 20260503214911 | 74 | 172 | 0.0 | 1.7 | 0.00 | 0.00 | 0.00 | 49 | 1018.0 |
| 20260503214411 | 74 | 208 | 0.9 | 1.7 | 0.00 | 0.00 | 0.00 | 48 | 1018.0 |
| 20260503213912 | 74 | 250 | 0.0 | 1.7 | 0.00 | 0.00 | 0.00 | 49 | 1018.0 |
| 20260503213412 | 74 | 201 | 0.9 | 2.6 | 0.00 | 0.00 | 0.00 | 49 | 1018.0 |
| 20260503212913 | 74 | 110 | 0.9 | 1.7 | 0.00 | 0.00 | 0.00 | 49 | 1018.0 |
| 20260503212411 | 74 | 111 | 0.9 | 1.7 | 0.00 | 0.00 | 0.00 | 50 | 1018.0 |
| 20260503211912 | 74 | 249 | 1.7 | 3.5 | 0.00 | 0.00 | 0.00 | 49 | 1018.0 |
| 20260503211412 | 74 | 108 | 0.9 | 3.5 | 0.00 | 0.00 | 0.00 | 49 | 1018.0 |
| 20260503210911 | 75 | 104 | 0.0 | 2.6 | 0.00 | 0.00 | 0.00 | 49 | 1018.0 |
| 20260503210413 | 75 | 93 | 2.6 | 5.2 | 0.00 | 0.00 | 0.00 | 48 | 1018.0 |
| 20260503205912 | 75 | 234 | 0.9 | 2.6 | 0.00 | 0.00 | 0.00 | 48 | 1018.0 |
| 20260503205413 | 75 | 86 | 0.9 | 2.6 | 0.00 | 0.00 | 0.00 | 49 | 1018.0 |
| 20260503204911 | 76 | 259 | 1.7 | 3.5 | 0.00 | 0.00 | 0.00 | 47 | 1018.0 |
| 20260503204411 | 76 | 268 | 0.9 | 2.6 | 0.00 | 0.00 | 0.00 | 47 | 1018.0 |
| 20260503203912 | 76 | 137 | 1.7 | 5.2 | 0.00 | 0.00 | 0.00 | 46 | 1018.0 |
| 20260503203411 | 76 | 261 | 1.7 | 5.2 | 0.00 | 0.00 | 0.00 | 45 | 1018.0 |
| 20260503202911 | 77 | 249 | 0.0 | 1.7 | 0.00 | 0.00 | 0.00 | 47 | 1018.0 |
| 20260503202411 | 77 | 73 | 0.9 | 2.6 | 0.00 | 0.00 | 0.00 | 48 | 1018.0 |
| 20260503201911 | 77 | 133 | 0.0 | 1.7 | 0.00 | 0.00 | 0.00 | 47 | 1018.0 |
| 20260503201414 | 77 | 236 | 0.9 | 1.7 | 0.00 | 0.00 | 0.00 | 47 | 1018.0 |
| 20260503200911 | 78 | 73 | 0.0 | 1.7 | 0.00 | 0.00 | 0.00 | 46 | 1019.0 |
| 20260503200411 | 78 | 251 | 0.0 | 0.0 | 0.00 | 0.00 | 0.00 | 46 | 1019.0 |
| 20260503195912 | 78 | 99 | 0.9 | 3.5 | 0.00 | 0.00 | 0.00 | 46 | 1019.0 |
| 20260503195412 | 78 | 96 | 0.0 | 0.9 | 0.00 | 0.00 | 0.00 | 45 | 1019.0 |
| 20260503194911 | 78 | 208 | 0.9 | 3.5 | 0.00 | 0.00 | 0.00 | 43 | 1019.0 |
| 20260503194411 | 78 | 124 | 1.7 | 3.5 | 0.00 | 0.00 | 0.00 | 43 | 1019.0 |
| 20260503193912 | 78 | 83 | 0.9 | 1.7 | 0.00 | 0.00 | 0.00 | 44 | 1019.0 |
| 20260503193411 | 77 | 228 | 0.9 | 2.6 | 0.00 | 0.00 | 0.00 | 44 | 1019.0 |
| 20260503192911 | 78 | 233 | 0.0 | 1.7 | 0.00 | 0.00 | 0.00 | 44 | 1019.0 |
| 20260503192411 | 78 | 213 | 0.9 | 2.6 | 0.00 | 0.00 | 0.00 | 42 | 1020.0 |
| 20260503191912 | 79 | 88 | 2.6 | 4.3 | 0.00 | 0.00 | 0.00 | 36 | 1019.0 |
| 20260503191411 | 79 | 80 | 1.7 | 5.2 | 0.00 | 0.00 | 0.00 | 37 | 1020.0 |
| 20260503190911 | 79 | 243 | 2.6 | 5.2 | 0.00 | 0.00 | 0.00 | 35 | 1020.0 |
| 20260503190412 | 79 | 109 | 0.9 | 3.5 | 0.00 | 0.00 | 0.00 | 36 | 1020.0 |
| 20260503185912 | 79 | 231 | 3.5 | 5.2 | 0.00 | 0.00 | 0.00 | 35 | 1020.0 |
| 20260503185411 | 79 | 105 | 1.7 | 6.1 | 0.00 | 0.00 | 0.00 | 37 | 1020.0 |
| 20260503184911 | 79 | 79 | 1.7 | 3.5 | 0.00 | 0.00 | 0.00 | 37 | 1020.0 |
| 20260503184411 | 80 | 59 | 0.0 | 1.7 | 0.00 | 0.00 | 0.00 | 37 | 1020.0 |
| 20260503183912 | 79 | 79 | 0.9 | 2.6 | 0.00 | 0.00 | 0.00 | 38 | 1020.0 |
| 20260503183411 | 78 | 149 | 0.0 | 1.7 | 0.00 | 0.00 | 0.00 | 37 | 1020.0 |
| 20260503182912 | 78 | 203 | 0.9 | 2.6 | 0.00 | 0.00 | 0.00 | 37 | 1020.0 |
| 20260503182411 | 78 | 239 | 1.7 | 4.3 | 0.00 | 0.00 | 0.00 | 37 | 1020.0 |
| 20260503181911 | 78 | 102 | 1.7 | 3.5 | 0.00 | 0.00 | 0.00 | 37 | 1020.0 |
| 20260503181411 | 78 | 117 | 1.7 | 3.5 | 0.00 | 0.00 | 0.00 | 37 | 1020.0 |
| 20260503180912 | 78 | 93 | 1.7 | 5.2 | 0.00 | 0.00 | 0.00 | 37 | 1020.0 |
| 20260503180412 | 78 | 102 | 0.9 | 2.6 | 0.00 | 0.00 | 0.00 | 37 | 1020.0 |
| 20260503175911 | 78 | 114 | 1.7 | 4.3 | 0.00 | 0.00 | 0.00 | 38 | 1020.0 |
| 20260503175411 | 78 | 240 | 2.6 | 5.2 | 0.00 | 0.00 | 0.00 | 39 | 1020.0 |
| 20260503174911 | 77 | 66 | 0.9 | 3.5 | 0.00 | 0.00 | 0.00 | 40 | 1020.0 |
| 20260503174412 | 77 | 170 | 0.9 | 3.5 | 0.00 | 0.00 | 0.00 | 38 | 1020.0 |
| 20260503173912 | 76 | 54 | 0.9 | 3.5 | 0.00 | 0.00 | 0.00 | 40 | 1020.0 |
| 20260503173412 | 77 | 80 | 3.5 | 5.2 | 0.00 | 0.00 | 0.00 | 38 | 1020.0 |
| 20260503172912 | 76 | 97 | 0.9 | 2.6 | 0.00 | 0.00 | 0.00 | 39 | 1020.0 |
| 20260503172411 | 77 | 13 | 1.7 | 3.5 | 0.00 | 0.00 | 0.00 | 39 | 1020.0 |
| 20260503171912 | 77 | 81 | 2.6 | 6.1 | 0.00 | 0.00 | 0.00 | 39 | 1020.0 |
| 20260503171412 | 76 | 101 | 1.7 | 4.3 | 0.00 | 0.00 | 0.00 | 39 | 1021.0 |
| 20260503170912 | 76 | 84 | 3.5 | 5.2 | 0.00 | 0.00 | 0.00 | 39 | 1021.0 |
| 20260503170411 | 76 | 77 | 0.9 | 2.6 | 0.00 | 0.00 | 0.00 | 39 | 1021.0 |
| 20260503150912 | 74 | 0 | 1.7 | 3.5 | 0.00 | 0.00 | 0.00 | 42 | 1022.0 |
| 20260503150412 | 74 | 104 | 1.7 | 5.2 | 0.00 | 0.00 | 0.00 | 43 | 1022.0 |
| 20260503131412 | 62 | 153 | 1.7 | 2.6 | 0.00 | 0.00 | 0.00 | 63 | 1021.0 |
| 20260503130911 | 62 | 135 | 1.7 | 4.3 | 0.00 | 0.00 | 0.00 | 65 | 1021.0 |
| 20260503130411 | 62 | 59 | 3.5 | 6.1 | 0.00 | 0.00 | 0.00 | 64 | 1021.0 |
| 20260503110411 | 51 | 6 | 1.7 | 2.6 | 0.00 | 0.00 | 0.00 | 81 | 1020.0 |